Time;durP1;ratioP1;P1;durP2;ratioP2;P2;SDS_P1;SDS_P2;PMS_P1;PMS_P2;Temp;Humidity;BMP_temperature;BMP_pressure;BME280_temperature;BME280_humidity;BME280_pressure;Samples;Min_cycle;Max_cycle;Signal;HPM_P1;HPM_P2
2023/01/24 01:25:03;;;;;;;15.00;5.80;;;;;;;0.39;65.48;102585.06;105826;1262;59535;-61
2023/01/24 01:27:34;;;;;;;13.30;6.30;;;;;;;0.43;65.64;102585.76;107184;1249;73561;-60
2023/01/24 01:30:01;;;;;;;11.40;5.30;;;;;;;0.47;65.71;102589.55;107102;1245;60551;-61
2023/01/24 01:32:29;;;;;;;12.10;5.20;;;;;;;0.47;65.86;102587.82;107127;1246;60980;-61
2023/01/24 01:34:57;;;;;;;10.10;5.20;;;;;;;0.41;66.10;102588.17;107851;1246;72912;-60
2023/01/24 01:37:24;;;;;;;13.30;5.20;;;;;;;0.36;66.12;102589.05;107027;1247;71171;-61
2023/01/24 01:39:51;;;;;;;24.20;8.90;;;;;;;0.29;66.34;102591.99;107217;1247;72383;-60
2023/01/24 01:42:18;;;;;;;17.50;5.80;;;;;;;0.23;66.55;102589.08;107496;1246;60385;-60
2023/01/24 01:44:48;;;;;;;11.70;4.40;;;;;;;0.19;66.67;102591.67;107166;1249;60864;-60
2023/01/24 01:47:28;;;;;;;11.90;5.50;;;;;;;0.26;66.66;102591.66;107266;1246;74022;-61
2023/01/24 01:50:03;;;;;;;16.10;6.30;;;;;;;0.34;66.62;102589.75;107732;1246;62720;-59
2023/01/24 01:52:36;;;;;;;13.50;6.10;;;;;;;0.42;66.75;102585.42;107321;1246;73517;-61
2023/01/24 01:55:11;;;;;;;17.40;6.20;;;;;;;0.46;66.68;102583.67;107408;1249;59733;-61
2023/01/24 01:57:40;;;;;;;24.10;7.60;;;;;;;0.46;66.69;102582.45;107557;1246;60382;-60
2023/01/24 02:00:09;;;;;;;14.40;7.50;;;;;;;0.45;66.90;102581.08;106918;1245;73732;-61
2023/01/24 02:02:42;;;;;;;15.60;6.00;;;;;;;0.44;66.76;102584.36;107163;1249;70145;-60
2023/01/24 02:05:10;;;;;;;12.60;6.20;;;;;;;0.41;66.78;102586.10;107012;1246;72520;-60
2023/01/24 02:07:49;;;;;;;14.70;6.00;;;;;;;0.38;66.71;102585.60;107291;1251;59712;-61
2023/01/24 02:10:20;;;;;;;11.70;5.20;;;;;;;0.34;66.61;102586.30;106987;1247;59719;-61
2023/01/24 02:12:47;;;;;;;12.90;5.30;;;;;;;0.36;66.50;102587.31;107025;1251;73885;-61
2023/01/24 02:18:04;;;;;;;15.20;6.90;;;;;;;0.42;66.59;102590.77;107070;1249;64902;-59
2023/01/24 02:20:42;;;;;;;12.30;4.50;;;;;;;0.41;66.49;102587.31;107175;1249;59767;-61
2023/01/24 02:23:40;;;;;;;10.80;4.40;;;;;;;0.37;66.57;102592.16;107341;1245;59752;-60
2023/01/24 02:26:12;;;;;;;14.20;7.00;;;;;;;0.30;66.49;102591.30;107467;1246;65169;-60
2023/01/24 02:28:42;;;;;;;13.10;5.40;;;;;;;0.24;66.50;102593.55;107125;1247;71095;-61
2023/01/24 02:31:09;;;;;;;10.60;5.20;;;;;;;0.16;66.39;102599.44;107009;1251;73459;-61
2023/01/24 02:33:37;;;;;;;18.10;7.30;;;;;;;0.11;66.33;102598.08;107138;1246;61979;-60
2023/01/24 02:36:26;;;;;;;16.10;7.10;;;;;;;0.16;66.37;102602.73;107135;1249;60073;-61
2023/01/24 02:39:02;;;;;;;11.50;4.90;;;;;;;0.22;66.26;102596.33;106917;1252;65070;-63
2023/01/24 02:41:44;;;;;;;11.50;5.50;;;;;;;0.21;66.24;102597.52;106955;1251;71012;-61
2023/01/24 02:44:35;;;;;;;11.80;4.60;;;;;;;0.18;66.36;102595.48;107106;1252;63782;-61
2023/01/24 02:47:03;;;;;;;13.90;4.90;;;;;;;0.18;66.56;102599.95;107347;1246;59546;-61
2023/01/24 02:49:32;;;;;;;14.70;4.60;;;;;;;0.17;66.48;102599.95;106956;1245;61364;-60
2023/01/24 02:54:45;;;;;;;12.40;4.90;;;;;;;-0.01;66.27;102595.83;107267;1249;62405;-61
2023/01/24 02:59:58;;;;;;;12.10;5.30;;;;;;;0.01;66.44;102595.30;106951;1245;59670;-61
2023/01/24 03:02:25;;;;;;;9.70;4.80;;;;;;;-0.01;66.56;102595.65;107428;1246;60950;-60
2023/01/24 03:04:52;;;;;;;21.40;7.10;;;;;;;-0.05;66.70;102595.48;107117;1249;73841;-60
2023/01/24 03:07:22;;;;;;;12.10;4.00;;;;;;;-0.09;66.69;102594.78;107023;1249;71184;-60
2023/01/24 03:09:52;;;;;;;11.00;5.60;;;;;;;-0.11;66.72;102591.50;107005;1246;72553;-60
2023/01/24 03:34:48;;;;;;;13.40;6.30;;;;;;;0.02;66.37;102594.97;107505;1240;62591;-61
2023/01/24 03:40:09;;;;;;;11.10;4.50;;;;;;;-0.04;66.66;102596.17;107767;1238;59600;-60
2023/01/24 03:42:47;;;;;;;12.90;5.50;;;;;;;-0.06;66.80;102591.52;107663;1240;61445;-61
2023/01/24 03:45:20;;;;;;;15.20;5.80;;;;;;;-0.09;66.87;102591.16;107690;1239;64233;-60
2023/01/24 03:47:56;;;;;;;13.70;5.60;;;;;;;-0.07;66.88;102585.30;107822;1245;71148;-61
2023/01/24 03:53:21;;;;;;;;;;;;;;;-0.02;66.50;102587.55;107616;1240;59701;-60
2023/01/24 03:55:56;;;;;;;13.20;5.50;;;;;;;-0.08;66.58;102588.92;107776;1240;61004;-60
2023/01/24 03:58:24;;;;;;;16.50;6.70;;;;;;;-0.17;66.73;102582.55;107759;1242;72813;-61
2023/01/24 04:00:51;;;;;;;19.30;6.50;;;;;;;-0.21;66.94;102580.30;107910;1243;70939;-62
2023/01/24 04:03:35;;;;;;;17.40;6.60;;;;;;;-0.23;67.08;102579.44;107599;1241;64972;-62
2023/01/24 04:06:03;;;;;;;13.80;6.00;;;;;;;-0.27;67.08;102579.27;107902;1242;61926;-62
2023/01/24 04:08:30;;;;;;;13.90;6.90;;;;;;;-0.26;66.80;102581.69;107780;1240;61222;-64
2023/01/24 04:10:57;;;;;;;12.90;5.30;;;;;;;-0.27;66.71;102583.41;107572;1239;73885;-63
2023/01/24 04:13:24;;;;;;;15.60;6.70;;;;;;;-0.32;66.97;102582.20;107645;1240;70145;-60
2023/01/24 04:15:51;;;;;;;11.40;5.30;;;;;;;-0.34;67.14;102581.34;107455;1244;73436;-60
2023/01/24 04:18:28;;;;;;;13.20;5.80;;;;;;;-0.34;67.34;102584.27;107597;1244;60286;-61
2023/01/24 04:20:56;;;;;;;13.10;5.80;;;;;;;-0.34;67.27;102583.58;107769;1244;61017;-61
2023/01/24 05:52:07;;;;;;;13.10;5.00;;;;;;;-0.69;68.05;102627.13;103233;1291;603091;-62
2023/01/24 05:54:50;;;;;;;18.80;7.90;;;;;;;-0.58;67.68;102627.50;106419;1266;59254;-59
2023/01/24 05:57:26;;;;;;;14.50;7.30;;;;;;;-0.56;67.51;102625.79;105275;1266;61016;-61
2023/01/24 06:00:10;;;;;;;19.60;9.70;;;;;;;-0.42;67.40;102626.50;104668;1270;63592;-62
2023/01/24 06:03:01;;;;;;;23.40;6.70;;;;;;;-0.32;67.28;102628.59;104533;1269;62643;-61
2023/01/24 06:05:30;;;;;;;17.40;6.80;;;;;;;-0.28;67.20;102629.80;104504;1267;256492;-62
2023/01/24 06:07:59;;;;;;;15.60;6.50;;;;;;;-0.29;67.25;102627.90;105087;1264;60479;-61
2023/01/24 06:10:28;;;;;;;10.50;4.70;;;;;;;-0.32;67.17;102632.72;104969;1263;60691;-60
2023/01/24 06:13:05;;;;;;;22.40;6.30;;;;;;;-0.38;67.30;102634.80;104865;1264;73139;-62
2023/01/24 06:15:34;;;;;;;15.20;6.80;;;;;;;-0.43;67.41;102635.46;104728;1264;71193;-62
2023/01/24 06:18:04;;;;;;;14.50;6.90;;;;;;;-0.45;67.21;102630.81;105378;1264;73490;-62
2023/01/24 06:20:33;;;;;;;20.70;9.70;;;;;;;-0.40;67.00;102638.58;105042;1264;62196;-60
2023/01/24 06:23:04;;;;;;;16.80;7.40;;;;;;;-0.33;66.85;102636.17;105089;1267;60251;-62
2023/01/24 06:25:37;;;;;;;18.50;6.80;;;;;;;-0.31;66.83;102638.95;104914;1265;74234;-60
2023/01/24 06:28:07;;;;;;;15.00;5.70;;;;;;;-0.33;66.80;102641.52;104973;1264;71234;-61
2023/01/24 06:30:37;;;;;;;18.50;6.80;;;;;;;-0.37;66.74;102643.42;104882;1267;73649;-65
2023/01/24 06:33:25;;;;;;;20.50;7.10;;;;;;;-0.41;66.83;102643.92;104836;1267;59759;-63
2023/01/24 06:36:02;;;;;;;22.10;7.50;;;;;;;-0.46;67.02;102648.39;104905;1263;59786;-63
2023/01/24 06:38:32;;;;;;;15.60;7.60;;;;;;;-0.51;67.02;102648.04;104831;1264;74063;-60
2023/01/24 06:41:01;;;;;;;19.20;7.50;;;;;;;-0.51;66.87;102651.65;104868;1264;71044;-61
2023/01/24 06:43:33;;;;;;;14.70;7.20;;;;;;;-0.51;66.91;102650.80;104778;1267;72628;-61
2023/01/24 06:46:01;;;;;;;17.30;9.50;;;;;;;-0.54;67.04;102649.40;104992;1263;60634;-60
2023/01/24 06:48:30;;;;;;;20.80;7.20;;;;;;;-0.54;67.30;102650.79;108560;1264;60400;-61
2023/01/24 06:50:58;;;;;;;15.70;7.60;;;;;;;-0.51;67.36;102647.88;104689;1264;72977;-60
2023/01/24 06:53:27;;;;;;;19.50;7.50;;;;;;;-0.51;67.23;102648.73;104873;1264;70306;-61
2023/01/24 06:55:55;;;;;;;17.30;7.10;;;;;;;-0.55;67.28;102650.10;104919;1267;73427;-60
2023/01/24 06:58:23;;;;;;;23.10;7.90;;;;;;;-0.56;67.28;102650.09;104820;1264;61976;-62
2023/01/24 07:00:53;;;;;;;17.80;8.90;;;;;;;-0.53;66.99;102649.23;105135;1263;60070;-64
2023/01/24 07:03:21;;;;;;;10.60;5.60;;;;;;;-0.49;67.11;102647.02;104843;1264;72984;-63
2023/01/24 07:05:49;;;;;;;17.20;7.40;;;;;;;-0.47;67.07;102645.29;105198;1266;71709;-63
2023/01/24 07:08:20;;;;;;;11.90;6.40;;;;;;;-0.50;67.16;102647.02;105249;1268;73655;-63
2023/01/24 07:10:49;;;;;;;24.40;7.30;;;;;;;-0.51;67.38;102649.59;105419;1264;60274;-64
2023/01/24 07:13:17;;;;;;;14.80;5.20;;;;;;;-0.52;67.41;102648.73;104950;1264;60311;-63
2023/01/24 07:15:46;;;;;;;16.30;7.80;;;;;;;-0.55;67.28;102648.90;104819;1268;73866;-63
2023/01/24 07:18:16;;;;;;;13.10;5.90;;;;;;;-0.59;67.41;102649.56;104810;1266;70963;-64
2023/01/24 07:20:44;;;;;;;15.80;6.90;;;;;;;-0.53;67.03;102651.31;105287;1264;73656;-63
2023/01/24 07:23:32;;;;;;;15.90;6.50;;;;;;;-0.49;66.75;102646.67;104958;1264;60136;-63
2023/01/24 07:26:03;;;;;;;16.30;6.70;;;;;;;-0.49;66.95;102647.88;104821;1267;60310;-63
2023/01/24 07:28:31;;;;;;;17.20;6.50;;;;;;;-0.50;67.02;102652.70;105288;1267;72815;-63
2023/01/24 07:30:59;;;;;;;15.30;5.60;;;;;;;-0.54;67.14;102654.75;105177;1265;71277;-64
2023/01/24 07:33:28;;;;;;;14.20;7.00;;;;;;;-0.55;67.12;102656.81;105194;1264;73688;-63
2023/01/24 07:35:56;;;;;;;17.80;7.40;;;;;;;-0.56;67.23;102655.43;105131;1264;59961;-62
2023/01/24 07:38:27;;;;;;;24.70;7.60;;;;;;;-0.53;67.27;102654.75;105119;1264;60650;-62
2023/01/24 07:40:56;;;;;;;14.70;6.50;;;;;;;-0.40;67.26;102656.34;105818;1264;73887;-64
2023/01/24 07:43:24;;;;;;;13.50;7.00;;;;;;;-0.27;66.80;102660.52;105456;1264;70897;-66
2023/01/24 07:45:53;;;;;;;13.00;5.90;;;;;;;-0.21;66.47;102661.73;105510;1260;72704;-65
2023/01/24 07:48:21;;;;;;;19.60;7.90;;;;;;;-0.21;66.24;102662.41;105275;1261;60610;-65
2023/01/24 07:50:50;;;;;;;14.70;6.00;;;;;;;-0.25;66.30;102660.85;105492;1260;61284;-63
2023/01/24 07:53:19;;;;;;;21.20;6.40;;;;;;;-0.26;66.30;102659.30;104971;1264;74011;-62
2023/01/24 07:55:47;;;;;;;12.40;5.70;;;;;;;-0.31;66.18;102660.48;105144;1261;71320;-62
2023/01/24 07:58:32;;;;;;;20.50;6.40;;;;;;;-0.43;66.64;102662.37;104993;1263;73626;-64
2023/01/24 08:01:01;;;;;;;15.70;6.40;;;;;;;-0.46;66.64;102663.23;104805;1262;60599;-62
2023/01/24 08:03:29;;;;;;;20.30;7.80;;;;;;;-0.41;66.67;102664.27;105169;1260;60447;-61
2023/01/24 08:05:58;;;;;;;15.50;6.40;;;;;;;-0.31;66.41;102662.40;104805;1264;74026;-63
2023/01/24 08:08:26;;;;;;;12.00;5.80;;;;;;;-0.17;66.30;102661.90;105076;1262;71909;-62
2023/01/24 08:10:55;;;;;;;15.90;6.60;;;;;;;-0.10;66.15;102664.15;104822;1265;73624;-63
2023/01/24 08:13:23;;;;;;;13.80;6.00;;;;;;;-0.07;66.27;102660.02;104938;1260;60586;-63
2023/01/24 08:15:52;;;;;;;27.40;9.50;;;;;;;-0.05;66.28;102658.80;105194;1260;61280;-64
2023/01/24 08:18:20;;;;;;;14.40;7.70;;;;;;;-0.06;66.11;102658.29;104867;1263;73694;-61
2023/01/24 08:20:48;;;;;;;17.60;8.10;;;;;;;-0.07;66.17;102657.27;104855;1260;71195;-64
2023/01/24 08:23:17;;;;;;;22.70;9.00;;;;;;;-0.12;66.15;102658.11;104901;1261;72542;-65
2023/01/24 08:25:45;;;;;;;24.20;11.90;;;;;;;-0.19;66.31;102654.14;104806;1261;60278;-63
2023/01/24 08:28:13;;;;;;;30.20;11.80;;;;;;;-0.17;66.46;102655.00;104966;1262;61336;-63
2023/01/24 08:30:43;;;;;;;22.10;10.30;;;;;;;-0.10;66.37;102657.08;105224;1264;74005;-63
2023/01/24 08:33:17;;;;;;;15.00;6.90;;;;;;;-0.09;66.36;102657.60;104738;1261;71411;-63
2023/01/24 08:35:46;;;;;;;22.80;9.30;;;;;;;-0.14;66.34;102658.62;104943;1262;73373;-65
2023/01/24 08:38:14;;;;;;;19.50;10.00;;;;;;;-0.17;66.68;102655.35;105271;1262;60966;-63
2023/01/24 08:40:43;;;;;;;25.50;10.80;;;;;;;-0.19;66.59;102651.38;105289;1262;60984;-64
2023/01/24 08:43:17;;;;;;;14.90;7.40;;;;;;;-0.22;66.49;102648.79;104905;1262;73646;-64
2023/01/24 08:45:47;;;;;;;18.90;9.20;;;;;;;-0.18;66.43;102651.03;104959;1262;71241;-63
2023/01/24 08:48:15;;;;;;;15.60;8.30;;;;;;;-0.13;66.28;102649.48;104898;1260;73660;-65
2023/01/24 10:29:38;;;;;;;15.40;9.00;;;;;;;0.75;64.42;102593.95;106614;1264;70870;-64
2023/01/24 10:32:14;;;;;;;21.10;9.60;;;;;;;0.67;64.37;102586.02;108054;1245;70850;-65
2023/01/24 10:34:46;;;;;;;12.40;5.20;;;;;;;0.59;64.47;102588.48;107171;1249;72299;-63
2023/01/24 10:37:23;;;;;;;15.60;7.10;;;;;;;0.52;64.47;102586.77;107255;1244;59643;-65
2023/01/24 10:39:50;;;;;;;16.00;7.40;;;;;;;0.50;64.78;102585.21;107412;1244;61249;-62
2023/01/24 10:42:23;;;;;;;17.90;7.60;;;;;;;0.56;64.80;102578.65;107328;1247;72745;-63
2023/01/24 10:44:51;;;;;;;16.10;7.80;;;;;;;0.62;64.83;102576.20;107435;1244;71149;-63
2023/01/24 10:47:56;;;;;;;14.90;7.80;;;;;;;0.63;65.12;102577.05;107943;1249;72329;-63
2023/01/24 10:50:26;;;;;;;15.30;7.90;;;;;;;0.65;65.22;102576.19;106671;1255;59684;-64
2023/01/24 10:52:53;;;;;;;19.50;8.30;;;;;;;0.63;65.11;102572.73;107032;1247;60867;-64
2023/01/24 10:55:36;;;;;;;19.20;9.30;;;;;;;0.56;65.44;102570.53;107216;1251;73674;-63
2023/01/24 10:58:23;;;;;;;20.10;8.40;;;;;;;0.61;65.54;102571.19;107367;1248;71038;-66
2023/01/24 11:00:59;;;;;;;16.20;8.00;;;;;;;0.61;65.53;102566.35;107739;1243;63941;-63
2023/01/24 11:03:32;;;;;;;21.70;9.40;;;;;;;0.60;65.61;102560.66;107535;1249;61940;-64
2023/01/24 11:05:59;;;;;;;18.20;9.00;;;;;;;0.71;65.41;102557.85;107310;1249;59796;-64
2023/01/24 11:08:34;;;;;;;19.50;11.10;;;;;;;0.75;65.26;102553.69;107046;1244;72168;-62
2023/01/24 11:11:01;;;;;;;19.40;8.40;;;;;;;0.74;65.37;102554.91;107909;1244;71070;-63
2023/01/24 11:13:38;;;;;;;20.70;9.60;;;;;;;0.68;65.69;102550.10;107872;1245;73481;-65
2023/01/24 11:16:15;;;;;;;21.30;8.50;;;;;;;0.60;65.89;102549.60;110194;1248;60411;-63
2023/01/24 11:18:56;;;;;;;16.40;8.40;;;;;;;0.55;65.99;102546.17;107227;1243;60974;-62
2023/01/24 11:21:23;;;;;;;15.20;7.30;;;;;;;0.50;66.16;102546.19;107380;1244;73905;-64
2023/01/24 11:24:06;;;;;;;16.60;6.90;;;;;;;0.50;66.04;102548.08;107637;1237;71037;-63
2023/01/24 11:26:38;;;;;;;21.80;10.20;;;;;;;0.46;66.02;102546.71;107989;1241;65124;-63
2023/01/24 11:29:16;;;;;;;16.90;7.90;;;;;;;0.48;65.75;102546.02;108375;1241;62085;-64
2023/01/24 11:31:53;;;;;;;13.40;6.20;;;;;;;0.54;65.81;102543.59;108878;1240;59908;-63
2023/01/24 11:34:20;;;;;;;17.10;8.50;;;;;;;0.61;65.93;102542.70;108445;1237;73788;-66
2023/01/24 11:36:50;;;;;;;14.90;6.30;;;;;;;0.66;65.94;102539.74;107805;1241;70043;-66
2023/01/24 11:39:24;;;;;;;16.30;7.00;;;;;;;0.69;65.85;102536.95;107937;1240;73256;-64
2023/01/24 11:41:55;;;;;;;20.00;8.30;;;;;;;0.70;65.69;102537.99;108600;1240;60472;-66
2023/01/24 11:44:41;;;;;;;30.00;11.40;;;;;;;0.69;65.59;102534.02;108312;1242;60620;-63
2023/01/24 11:47:11;;;;;;;21.00;7.80;;;;;;;0.63;65.37;102534.21;107889;1241;65422;-63
2023/01/24 11:49:46;;;;;;;21.50;8.70;;;;;;;0.52;65.50;102536.50;108201;1240;70486;-63
2023/01/24 11:52:50;;;;;;;17.60;10.30;;;;;;;0.49;65.87;102538.08;108250;1240;73427;-63
2023/01/24 11:55:44;;;;;;;15.50;7.80;;;;;;;0.56;65.93;102531.48;108813;1238;59748;-63
2023/01/24 11:58:54;;;;;;;13.50;6.60;;;;;;;0.64;65.57;102530.58;108473;1240;59614;-63
2023/01/24 12:01:21;;;;;;;18.10;10.10;;;;;;;0.64;65.92;102530.08;109051;1245;64280;-63
2023/01/24 12:03:50;;;;;;;24.30;9.60;;;;;;;0.59;66.53;102530.61;107833;1241;70896;-62
2023/01/24 12:06:47;;;;;;;23.10;11.70;;;;;;;0.58;66.41;102531.31;108730;1240;73398;-63
2023/01/24 12:09:17;;;;;;;22.60;11.00;;;;;;;0.57;66.22;102531.48;108702;1237;59633;-63
2023/01/24 12:11:53;;;;;;;20.30;9.20;;;;;;;0.57;66.27;102528.54;108008;1240;61214;-63
2023/01/24 12:14:32;;;;;;;;;;;;;;;0.62;66.09;102531.11;108406;1237;73761;-63
2023/01/24 12:17:02;;;;;;;25.00;10.50;;;;;;;0.68;66.09;102527.80;107820;1240;70949;-63
2023/01/24 12:19:49;;;;;;;24.40;10.60;;;;;;;0.70;65.98;102528.66;108188;1245;64679;-63
2023/01/24 12:22:23;;;;;;;26.00;10.70;;;;;;;0.64;66.11;102530.77;108023;1238;60187;-63
2023/01/24 12:25:23;;;;;;;23.70;8.70;;;;;;;0.58;66.21;102529.58;108098;1242;60204;-63
2023/01/24 12:27:50;;;;;;;20.80;9.50;;;;;;;0.55;66.39;102527.52;108028;1240;65329;-63
2023/01/24 12:30:33;;;;;;;21.80;8.60;;;;;;;0.55;66.55;102528.73;108258;1242;71096;-63
2023/01/24 12:33:05;;;;;;;23.60;9.90;;;;;;;0.54;66.59;102529.09;108213;1240;73845;-63
2023/01/24 12:35:35;;;;;;;22.90;10.90;;;;;;;0.52;66.49;102526.84;108837;1238;60456;-63
2023/01/24 12:38:11;;;;;;;23.40;11.30;;;;;;;0.51;66.33;102529.42;108294;1240;61337;-64
2023/01/24 12:40:44;;;;;;;;;;;;;;;0.58;66.34;102530.96;108486;1239;72846;-63
2023/01/24 12:43:26;;;;;;;21.40;10.80;;;;;;;0.60;66.18;102534.23;108779;1241;71214;-64
2023/01/24 12:46:17;;;;;;;20.80;9.30;;;;;;;0.59;66.39;102537.70;108138;1240;64917;-63
2023/01/24 12:48:50;;;;;;;21.80;11.00;;;;;;;0.59;66.63;102535.28;108175;1240;60169;-64
2023/01/24 12:51:47;;;;;;;22.00;11.40;;;;;;;0.60;66.56;102537.70;108595;1240;61197;-63
2023/01/24 12:54:21;;;;;;;25.40;8.50;;;;;;;0.58;66.25;102537.35;107738;1243;65190;-63
2023/01/24 12:57:27;;;;;;;24.60;10.40;;;;;;;0.52;66.03;102535.64;107987;1242;70304;-62
2023/01/24 12:59:53;;;;;;;24.60;12.70;;;;;;;0.52;65.92;102537.89;108447;1241;63939;-62
2023/01/24 13:02:53;;;;;;;21.90;9.30;;;;;;;0.59;66.17;102537.17;108009;1242;60117;-62
2023/01/24 13:05:32;;;;;;;17.10;8.70;;;;;;;0.64;66.23;102539.58;107984;1241;59669;-63
2023/01/24 13:08:25;;;;;;;23.30;11.20;;;;;;;0.62;66.01;102533.02;108003;1241;73562;-64
2023/01/24 13:10:56;;;;;;;26.70;11.40;;;;;;;0.59;65.93;102534.92;108005;1240;62617;-62
2023/01/24 13:13:26;;;;;;;20.30;9.90;;;;;;;0.48;66.28;102536.17;108113;1241;73348;-62
2023/01/24 13:16:00;;;;;;;22.80;9.80;;;;;;;0.46;66.27;102538.08;107765;1241;59710;-63
2023/01/24 13:18:33;;;;;;;20.30;10.50;;;;;;;0.47;66.22;102538.24;108086;1239;61309;-63
2023/01/24 13:21:20;;;;;;;26.40;12.70;;;;;;;0.52;65.92;102540.66;108270;1241;73794;-65
2023/01/24 13:24:05;;;;;;;20.00;11.90;;;;;;;0.50;66.08;102539.96;108069;1240;61631;-63
2023/01/24 13:26:37;;;;;;;14.90;8.00;;;;;;;0.46;66.37;102536.01;108838;1241;64990;-64
2023/01/24 13:29:12;;;;;;;21.10;9.60;;;;;;;0.41;66.47;102534.83;108153;1240;60762;-62
2023/01/24 13:32:07;;;;;;;21.50;10.90;;;;;;;0.38;66.39;102532.24;108309;1236;61186;-62
2023/01/24 13:34:55;;;;;;;17.60;9.50;;;;;;;0.40;66.42;102527.92;108011;1248;65321;-64
2023/01/24 13:37:31;;;;;;;17.40;8.00;;;;;;;0.44;66.35;102531.70;108144;1241;62611;-62
2023/01/24 13:40:05;;;;;;;20.00;10.20;;;;;;;0.43;66.30;102528.95;108207;1241;72620;-61
2023/01/24 13:42:41;;;;;;;18.10;7.10;;;;;;;0.36;66.40;102529.81;107975;1237;59671;-62
2023/01/24 15:30:19;;;;;;;21.40;9.80;;;;;;;0.31;69.73;102535.70;105983;1262;63429;-64
2023/01/24 15:32:54;;;;;;;17.80;8.50;;;;;;;0.37;68.82;102532.41;107311;1249;63172;-64
2023/01/24 15:35:24;;;;;;;18.70;7.60;;;;;;;0.41;68.56;102532.75;107698;1245;73388;-64
2023/01/24 15:38:03;;;;;;;21.10;9.80;;;;;;;0.40;68.87;102532.40;107630;1248;59168;-65
2023/01/24 15:40:30;;;;;;;24.60;10.70;;;;;;;0.37;68.89;102533.45;106950;1250;59390;-65
2023/01/24 15:47:43;;;;;;;17.60;7.40;;;;;;;0.30;68.68;102534.51;106803;1248;62505;-62
2023/01/24 15:48:38;;;;;;;23.30;10.10;;;;;;;0.26;68.68;102534.34;107064;1246;64946;-62
2023/01/24 15:51:26;;;;;;;18.30;8.50;;;;;;;0.25;68.68;102536.41;107363;1246;60217;-64
2023/01/24 15:53:54;;;;;;;15.70;10.30;;;;;;;0.34;68.37;102537.43;107914;1238;61228;-63
2023/01/24 15:56:23;;;;;;;18.90;9.00;;;;;;;0.43;68.01;102536.38;108032;1241;73851;-62
2023/01/24 15:58:51;;;;;;;17.30;9.50;;;;;;;0.50;67.83;102538.25;107658;1245;70990;-62
2023/01/24 16:01:18;;;;;;;21.20;9.50;;;;;;;0.54;67.60;102538.40;107988;1238;73650;-60
2023/01/24 16:03:46;;;;;;;17.60;8.80;;;;;;;0.58;67.57;102535.45;107723;1238;59644;-62
2023/01/24 16:06:13;;;;;;;17.90;8.20;;;;;;;0.57;67.40;102537.69;107695;1241;61179;-62
2023/01/24 16:08:40;;;;;;;22.30;10.40;;;;;;;0.52;67.12;102536.16;107714;1238;72100;-61
2023/01/24 16:11:10;;;;;;;17.90;10.20;;;;;;;0.47;67.00;102533.59;107617;1241;70255;-62
2023/01/24 16:13:39;;;;;;;22.70;10.70;;;;;;;0.42;66.91;102528.77;107852;1243;73451;-62
2023/01/24 16:16:10;;;;;;;18.90;8.90;;;;;;;0.42;66.81;102526.20;107692;1238;62039;-63
2023/01/24 16:18:37;;;;;;;15.50;7.30;;;;;;;0.47;66.81;102526.17;108013;1241;60053;-63
2023/01/24 16:21:04;;;;;;;17.60;8.80;;;;;;;0.45;66.77;102522.89;107792;1243;73042;-66
2023/01/24 16:23:31;;;;;;;20.40;8.30;;;;;;;0.40;66.69;102524.29;107825;1242;70260;-64
2023/01/24 16:26:01;;;;;;;16.20;8.10;;;;;;;0.33;66.81;102520.34;107682;1241;72561;-62
2023/01/24 16:28:28;;;;;;;20.50;9.30;;;;;;;0.29;66.88;102524.15;107816;1238;60238;-61
2023/01/24 16:31:02;;;;;;;20.60;9.70;;;;;;;0.27;66.98;102530.38;108017;1242;61131;-63
2023/01/24 16:33:29;;;;;;;19.90;9.70;;;;;;;0.26;67.02;102528.81;107691;1241;64187;-65
2023/01/24 16:35:56;;;;;;;19.10;8.70;;;;;;;0.28;66.95;102529.67;107729;1240;70863;-61
2023/01/24 16:38:23;;;;;;;18.80;8.30;;;;;;;0.34;66.79;102524.48;107678;1244;73385;-62
2023/01/24 16:40:51;;;;;;;22.10;9.80;;;;;;;0.39;66.72;102522.74;107883;1238;60169;-63
2023/01/24 16:43:19;;;;;;;17.40;7.60;;;;;;;0.42;66.80;102521.36;107901;1241;60875;-63
2023/01/24 16:45:47;;;;;;;19.00;9.10;;;;;;;0.43;66.63;102512.36;107989;1238;74080;-63
2023/01/24 16:48:14;;;;;;;19.70;8.90;;;;;;;0.44;66.64;102515.81;108008;1238;70117;-63
2023/01/24 16:50:42;;;;;;;19.90;8.50;;;;;;;0.43;66.30;102514.27;107853;1238;73678;-61
2023/01/24 16:53:09;;;;;;;18.30;8.80;;;;;;;0.40;66.27;102516.52;107773;1238;60099;-62
2023/01/24 16:55:39;;;;;;;18.10;8.10;;;;;;;0.34;66.10;102515.16;107796;1240;60660;-63
2023/01/24 16:58:12;;;;;;;22.60;11.20;;;;;;;0.26;66.31;102513.27;107816;1242;73895;-61
2023/01/24 17:00:39;;;;;;;17.60;9.50;;;;;;;0.24;66.14;102507.94;107831;1242;71159;-62
2023/01/24 17:03:08;;;;;;;20.90;10.90;;;;;;;0.25;66.29;102505.86;107854;1241;74031;-61
2023/01/24 17:05:39;;;;;;;22.50;10.50;;;;;;;0.22;66.45;102503.97;107980;1238;60414;-62
2023/01/24 17:08:11;;;;;;;24.20;10.30;;;;;;;0.20;66.50;102509.50;107890;1239;60962;-62
2023/01/24 17:10:39;;;;;;;18.50;7.40;;;;;;;0.18;66.70;102514.86;107800;1242;73619;-62
2023/01/24 17:13:26;;;;;;;17.70;8.60;;;;;;;0.15;66.85;102517.11;107692;1239;62836;-60
2023/01/24 17:15:53;;;;;;;17.80;9.00;;;;;;;0.12;66.92;102516.95;107868;1238;73190;-61
2023/01/24 17:18:21;;;;;;;20.30;8.70;;;;;;;0.13;67.17;102515.55;108019;1239;60225;-59
2023/01/24 17:20:49;;;;;;;20.10;9.70;;;;;;;0.15;67.13;102512.62;107753;1244;60811;-61
2023/01/24 17:23:16;;;;;;;19.90;9.00;;;;;;;0.19;66.82;102507.09;107947;1242;73591;-60
2023/01/24 17:25:43;;;;;;;17.40;7.80;;;;;;;0.31;66.35;102505.15;107898;1241;71278;-60
2023/01/24 17:28:10;;;;;;;19.50;8.90;;;;;;;0.40;66.13;102502.70;107677;1241;73249;-60
2023/01/24 17:30:37;;;;;;;23.70;9.90;;;;;;;0.45;66.00;102500.09;108521;1238;59739;-60
2023/01/24 17:33:05;;;;;;;18.40;9.20;;;;;;;0.48;66.02;102505.09;107669;1238;60883;-60
2023/01/24 17:35:37;;;;;;;16.10;7.00;;;;;;;0.48;66.21;102505.10;107657;1242;73826;-60
2023/01/24 17:38:04;;;;;;;16.90;8.90;;;;;;;0.47;65.90;102505.45;108383;1241;71082;-60
2023/01/24 17:40:31;;;;;;;16.90;8.10;;;;;;;0.46;66.02;102508.39;108235;1240;73490;-60
2023/01/24 17:42:58;;;;;;;18.00;8.20;;;;;;;0.44;65.97;102510.98;107659;1243;60359;-60
2023/01/24 17:45:25;;;;;;;16.70;8.90;;;;;;;0.43;66.00;102509.42;107684;1240;61135;-61
2023/01/24 17:47:52;;;;;;;21.00;8.60;;;;;;;0.41;65.89;102515.13;107807;1242;74118;-60
2023/01/24 17:50:22;;;;;;;23.00;10.30;;;;;;;0.39;66.06;102517.91;107809;1242;71096;-61
2023/01/24 17:52:49;;;;;;;17.20;8.80;;;;;;;0.34;66.00;102508.25;108165;1238;73607;-59
2023/01/24 17:55:16;;;;;;;18.10;7.40;;;;;;;0.30;66.03;102509.13;107722;1242;60355;-62
2023/01/24 17:57:43;;;;;;;21.50;9.30;;;;;;;0.25;66.06;102503.45;107715;1241;61052;-62
2023/01/24 18:00:11;;;;;;;22.40;11.30;;;;;;;0.26;66.10;102502.41;107970;1241;73716;-60
2023/01/24 18:03:55;;;;;;;26.30;10.20;;;;;;;0.28;66.21;102498.25;101730;1294;601675;-59
2023/01/24 18:06:25;;;;;;;18.80;8.30;;;;;;;0.43;66.00;102499.08;104575;1265;59353;-60
2023/01/24 18:08:53;;;;;;;19.90;10.20;;;;;;;0.49;66.03;102501.98;105664;1268;60913;-61
2023/01/24 18:11:21;;;;;;;17.90;8.50;;;;;;;0.52;66.20;102503.87;104757;1267;73187;-62
2023/01/24 18:13:52;;;;;;;23.20;10.30;;;;;;;0.55;66.06;102504.04;104664;1265;71183;-61
2023/01/24 18:16:21;;;;;;;18.30;9.00;;;;;;;0.57;66.01;102505.59;104417;1262;294467;-62
2023/01/24 18:18:49;;;;;;;19.90;10.50;;;;;;;0.56;66.03;102505.40;104790;1263;60382;-61
2023/01/24 18:21:20;;;;;;;20.20;11.10;;;;;;;0.55;66.09;102501.79;104708;1263;60221;-61
2023/01/24 18:23:52;;;;;;;23.70;10.20;;;;;;;0.53;65.86;102503.17;104745;1264;73197;-61
2023/01/24 18:26:21;;;;;;;14.70;9.30;;;;;;;0.45;65.59;102495.95;104806;1262;70079;-63
2023/01/24 18:28:50;;;;;;;16.30;7.20;;;;;;;0.43;65.61;102495.45;104759;1266;72675;-61
2023/01/24 18:31:18;;;;;;;28.00;11.70;;;;;;;0.43;65.54;102495.78;104831;1263;62207;-61
2023/01/24 18:33:47;;;;;;;19.80;9.00;;;;;;;0.44;65.44;102496.46;104815;1262;61280;-61
2023/01/24 18:36:17;;;;;;;23.70;11.30;;;;;;;0.46;65.58;102496.63;104686;1267;73892;-61